createdAt,value
2019-05-01T00:00:29.313Z,89.42
2019-05-01T00:01:08.316Z,89.04
2019-05-01T00:02:12.317Z,89.32
2019-05-01T00:03:08.816Z,89.23
2019-05-01T00:04:08.815Z,89.51
2019-05-01T00:05:08.816Z,89.61
2019-05-01T00:06:08.816Z,89.99
2019-05-01T00:07:09.320Z,88.94
2019-05-01T00:08:13.320Z,89.23
2019-05-01T00:09:09.313Z,89.14
2019-05-01T00:10:09.319Z,89.32
2019-05-01T00:11:09.822Z,89.32
2019-05-01T00:12:09.815Z,89.80
2019-05-01T00:13:09.815Z,89.32
2019-05-01T00:14:13.323Z,89.42
2019-05-01T00:15:11.785Z,89.61
2019-05-01T00:16:11.286Z,89.32
2019-05-01T00:17:10.312Z,89.51
2019-05-01T00:18:31.320Z,89.23
2019-05-01T00:19:14.323Z,88.56
2019-05-01T00:20:10.814Z,88.66
2019-05-01T00:21:10.820Z,89.28
2019-05-01T00:22:10.856Z,89.09
2019-05-01T00:24:46.055Z,89.75
2019-05-01T00:25:42.562Z,89.23
2019-05-01T00:26:42.562Z,89.61
2019-05-01T00:27:43.062Z,89.09
2019-05-01T00:28:43.062Z,89.37
2019-05-01T00:30:08.062Z,89.18
2019-05-01T00:30:43.065Z,90.04
2019-05-01T00:32:05.509Z,89.85
2019-05-01T00:34:14.884Z,89.18
2019-05-01T00:35:18.393Z,89.28
2019-05-01T00:36:14.886Z,89.42
2019-05-01T00:37:15.387Z,89.66
2019-05-01T00:38:15.389Z,89.00
2019-05-01T00:39:15.384Z,89.66
2019-05-01T00:40:18.892Z,89.75
2019-05-01T00:41:36.886Z,90.42
2019-05-01T00:42:15.886Z,90.61
2019-05-01T00:43:15.888Z,90.61
2019-05-01T00:44:15.893Z,90.42
2019-05-01T00:45:19.894Z,90.08
2019-05-01T00:46:16.385Z,89.94
2019-05-01T00:47:16.386Z,90.23
2019-05-01T00:48:16.389Z,89.85
2019-05-01T00:49:16.908Z,89.75
2019-05-01T00:50:16.917Z,89.94
2019-05-01T00:52:52.385Z,89.18
2019-05-01T00:53:52.393Z,89.09
2019-05-01T00:54:52.392Z,89.09
2019-05-01T00:55:52.885Z,89.80
2019-05-01T00:56:56.390Z,89.18
2019-05-01T00:57:52.889Z,89.28
2019-05-01T00:58:53.864Z,89.75
2019-05-01T01:00:14.390Z,89.18
2019-05-01T01:00:53.390Z,89.85
2019-05-01T01:01:56.891Z,89.66
2019-05-01T01:02:53.398Z,90.04
2019-05-01T01:03:53.890Z,90.23
2019-05-01T01:04:53.894Z,89.85
2019-05-01T01:06:14.890Z,89.47
2019-05-01T01:07:18.890Z,89.18
2019-05-01T01:08:15.390Z,89.37
2019-05-01T01:09:15.395Z,89.09
2019-05-01T01:10:15.395Z,88.90
2019-05-01T01:10:56.824Z,87.95
2019-05-01T01:12:26.345Z,88.04
2019-05-01T01:13:20.323Z,88.33
2019-05-01T01:13:54.889Z,88.04
2019-05-01T01:15:15.889Z,88.33
2019-05-01T01:15:54.891Z,89.18
2019-05-01T01:17:16.389Z,89.37
2019-05-01T01:17:58.891Z,89.66
2019-05-01T01:18:55.397Z,90.14
2019-05-01T01:19:55.389Z,90.14
2019-05-01T01:20:55.889Z,90.70
2019-05-01T01:21:55.891Z,90.33
2019-05-01T01:22:55.896Z,90.52
2019-05-01T01:23:59.898Z,90.89
2019-05-01T01:24:56.389Z,90.42
2019-05-01T01:25:56.391Z,90.23
2019-05-01T01:26:56.391Z,89.66
2019-05-01T01:27:56.389Z,89.75
2019-05-01T01:28:58.363Z,89.56
2019-05-01T01:29:59.889Z,89.66
2019-05-01T01:30:56.982Z,89.85
2019-05-01T01:31:56.888Z,89.47
2019-05-01T01:32:57.388Z,89.18
2019-05-01T01:35:32.749Z,89.75
2019-05-01T01:36:28.760Z,89.37
2019-05-01T01:37:28.763Z,89.71
2019-05-01T01:38:51.695Z,89.28
2019-05-01T01:39:50.259Z,89.14
2019-05-01T01:40:55.726Z,89.33
2019-05-01T01:41:50.256Z,89.42
2019-05-01T01:42:29.256Z,89.23
2019-05-01T01:45:00.991Z,90.00
2019-05-01T01:46:25.498Z,90.37
2019-05-01T01:47:00.997Z,89.90
2019-05-01T01:48:22.498Z,90.75
2019-05-01T01:49:22.506Z,90.75
2019-05-01T01:50:01.497Z,90.85
2019-05-01T01:51:05.499Z,90.85
2019-05-01T01:52:22.996Z,90.75
2019-05-01T01:53:01.997Z,90.85
2019-05-01T01:54:02.002Z,90.09
2019-05-01T01:55:02.003Z,89.80
2019-05-01T01:56:07.472Z,89.61
2019-05-01T01:57:03.432Z,89.14
2019-05-01T01:58:23.497Z,89.33
2019-05-01T01:59:02.504Z,89.14
2019-05-01T02:00:23.996Z,89.42
2019-05-01T02:01:27.996Z,89.80
2019-05-01T02:02:02.994Z,89.52
2019-05-01T02:03:02.996Z,89.71
2019-05-01T02:04:03.500Z,90.19
2019-05-01T02:05:03.502Z,90.66
2019-05-01T02:06:03.494Z,90.85
2019-05-01T02:07:27.996Z,90.85
2019-05-01T02:08:04.009Z,90.85
2019-05-01T02:09:03.998Z,91.04
2019-05-01T02:10:06.444Z,90.47
2019-05-01T02:11:03.996Z,91.04
2019-05-01T02:12:07.996Z,91.04
2019-05-01T02:13:04.495Z,90.75
2019-05-01T02:14:04.499Z,90.28
2019-05-01T02:15:04.501Z,90.00
2019-05-01T02:16:25.996Z,90.00
2019-05-01T02:17:04.996Z,89.42
2019-05-01T02:18:08.996Z,89.71
2019-05-01T02:19:05.041Z,88.85
2019-05-01T02:20:05.501Z,89.61
2019-05-01T02:21:26.498Z,89.80
2019-05-01T02:22:26.497Z,89.61
2019-05-01T02:23:05.495Z,89.90
2019-05-01T02:24:09.050Z,89.80
2019-05-01T02:25:05.993Z,90.00
2019-05-01T02:27:37.354Z,90.85
2019-05-01T02:30:11.835Z,90.75
2019-05-01T02:31:08.836Z,90.56
2019-05-01T02:32:29.837Z,91.42
2019-05-01T02:33:09.338Z,91.42
2019-05-01T02:34:09.340Z,91.71
2019-05-01T02:35:13.344Z,91.33
2019-05-01T02:36:09.336Z,91.42
2019-05-01T02:37:09.843Z,91.61
2019-05-01T02:38:09.841Z,91.33
2019-05-01T02:39:09.836Z,91.52
2019-05-01T02:40:09.838Z,91.13
2019-05-01T02:41:35.350Z,91.71
2019-05-01T02:42:11.790Z,91.99
2019-05-01T02:43:10.339Z,91.80
2019-05-01T02:44:10.341Z,91.89
2019-05-01T02:45:10.338Z,91.71
2019-05-01T02:47:45.074Z,92.85
2019-05-01T02:48:45.083Z,92.37
2019-05-01T02:49:45.092Z,92.56
2019-05-01T02:51:06.584Z,92.85
2019-05-01T02:52:10.088Z,92.85
2019-05-01T02:52:45.591Z,92.85
2019-05-01T02:53:45.592Z,92.18
2019-05-01T02:54:46.085Z,91.99
2019-05-01T02:55:46.081Z,92.27
2019-05-01T02:56:50.081Z,92.27
2019-05-01T02:57:46.081Z,92.27
2019-05-01T03:00:38.823Z,92.08
2019-05-01T03:02:53.300Z,92.08
2019-05-01T03:03:49.307Z,92.37
2019-05-01T03:04:49.309Z,92.27
2019-05-01T03:07:21.040Z,91.52
2019-05-01T03:08:25.073Z,91.71
2019-05-01T03:09:21.047Z,91.71
2019-05-01T03:10:21.567Z,91.89
2019-05-01T03:11:21.556Z,91.33
2019-05-01T03:12:21.551Z,91.80
2019-05-01T03:13:22.499Z,92.08
2019-05-01T03:14:46.546Z,91.80
2019-05-01T03:15:22.045Z,91.33
2019-05-01T03:16:22.055Z,90.70
2019-05-01T03:17:22.045Z,90.70
2019-05-01T03:18:22.049Z,90.47
2019-05-01T03:19:23.480Z,90.75
2019-05-01T03:20:26.046Z,90.85
2019-05-01T03:21:22.545Z,90.66
2019-05-01T03:22:22.552Z,90.85
2019-05-01T03:23:23.050Z,90.85
2019-05-01T03:24:23.051Z,90.85
2019-05-01T03:25:28.479Z,90.47
2019-05-01T03:26:23.049Z,90.66
2019-05-01T03:27:45.500Z,91.42
2019-05-01T03:28:23.552Z,91.52
2019-05-01T03:29:44.547Z,91.23
2019-05-01T03:30:23.546Z,90.85
2019-05-01T03:31:28.488Z,90.28
2019-05-01T03:32:24.054Z,90.66
2019-05-01T03:33:24.045Z,90.85
2019-05-01T03:34:24.053Z,89.80
2019-05-01T03:35:24.045Z,90.09
2019-05-01T03:36:28.045Z,89.23
2019-05-01T03:37:24.544Z,89.33
2019-05-01T03:38:24.562Z,89.14
2019-05-01T03:39:24.545Z,88.95
2019-05-01T03:40:25.062Z,89.04
2019-05-01T03:41:25.979Z,89.71
2019-05-01T03:42:29.045Z,89.33
2019-05-01T03:43:25.049Z,89.23
2019-05-01T03:44:25.547Z,89.23
2019-05-01T03:45:25.546Z,89.71
2019-05-01T03:46:25.552Z,89.04
2019-05-01T03:47:25.541Z,89.14
2019-05-01T03:48:29.044Z,88.95
2019-05-01T03:49:26.042Z,89.80
2019-05-01T03:50:26.046Z,89.33
2019-05-01T03:51:26.043Z,89.04
2019-05-01T03:54:01.785Z,88.62
2019-05-01T03:54:57.796Z,89.09
2019-05-01T03:55:57.830Z,88.81
2019-05-01T03:56:58.284Z,89.19
2019-05-01T03:58:19.301Z,89.38
2019-05-01T03:59:00.252Z,89.76
2019-05-01T04:00:03.798Z,90.61
2019-05-01T04:00:58.285Z,90.80
2019-05-01T04:03:30.021Z,91.85
2019-05-01T04:04:30.028Z,92.13
2019-05-01T04:05:33.525Z,92.32
2019-05-01T04:06:32.530Z,92.61
2019-05-01T04:07:30.528Z,92.51
2019-05-01T04:08:51.525Z,91.47
2019-05-01T04:09:30.524Z,90.61
2019-05-01T04:10:55.524Z,90.61
2019-05-01T04:11:52.025Z,90.05
2019-05-01T04:12:31.024Z,90.42
2019-05-01T04:13:31.025Z,89.95
2019-05-01T04:14:31.529Z,89.86
2019-05-01T04:15:31.536Z,89.76
2019-05-01T04:16:35.524Z,90.23
2019-05-01T04:17:31.524Z,90.71
2019-05-01T04:18:32.024Z,90.61
2019-05-01T04:19:32.024Z,90.52
2019-05-01T04:20:32.021Z,90.61
2019-05-01T04:21:35.523Z,90.61
2019-05-01T04:22:32.527Z,90.80
2019-05-01T04:25:04.829Z,90.90
2019-05-01T04:26:03.888Z,90.90
2019-05-01T04:27:07.394Z,91.28
2019-05-01T04:28:06.822Z,91.28
2019-05-01T04:29:25.388Z,91.56
2019-05-01T04:30:04.394Z,91.75
2019-05-01T04:31:04.410Z,91.47
2019-05-01T04:32:09.373Z,91.66
2019-05-01T04:33:11.821Z,91.75
2019-05-01T04:34:04.887Z,90.52
2019-05-01T04:35:04.888Z,90.61
2019-05-01T04:36:05.391Z,90.71
2019-05-01T04:37:06.363Z,91.38
2019-05-01T04:38:09.391Z,91.47
2019-05-01T04:39:05.386Z,91.85
2019-05-01T04:40:05.887Z,91.75
2019-05-01T04:41:05.887Z,92.13
2019-05-01T04:42:05.887Z,92.32
2019-05-01T04:43:05.887Z,92.71
2019-05-01T04:46:01.874Z,92.51
2019-05-01T04:46:40.878Z,92.13
2019-05-01T04:47:40.880Z,92.13
2019-05-01T04:48:42.312Z,92.23
2019-05-01T04:49:44.883Z,92.32
2019-05-01T04:50:42.313Z,91.75
2019-05-01T04:51:41.378Z,91.80
2019-05-01T04:52:41.874Z,91.80
2019-05-01T04:54:02.877Z,92.18
2019-05-01T04:54:41.884Z,92.56
2019-05-01T04:55:45.877Z,92.18
2019-05-01T04:56:42.380Z,92.37
2019-05-01T04:57:42.380Z,92.66
2019-05-01T04:58:43.359Z,92.66
2019-05-01T04:59:42.378Z,92.18
2019-05-01T05:01:07.386Z,92.08
2019-05-01T05:02:03.877Z,92.75
2019-05-01T05:02:42.879Z,92.46
2019-05-01T05:03:44.816Z,92.75
2019-05-01T05:04:43.378Z,92.46
2019-05-01T05:05:43.377Z,92.85
2019-05-01T05:06:47.376Z,92.56
2019-05-01T05:07:43.384Z,92.37
2019-05-01T05:08:43.876Z,92.66
2019-05-01T05:09:43.881Z,92.41
2019-05-01T05:10:43.876Z,93.37
2019-05-01T05:11:43.876Z,92.80
2019-05-01T05:12:48.376Z,92.70
2019-05-01T05:13:46.873Z,91.94
2019-05-01T05:14:44.384Z,92.41
2019-05-01T05:15:44.375Z,92.80
2019-05-01T05:16:44.875Z,92.89
2019-05-01T05:17:44.879Z,92.70
2019-05-01T05:18:48.445Z,92.89
2019-05-01T05:19:44.876Z,92.51
2019-05-01T05:21:06.376Z,92.13
2019-05-01T05:21:45.375Z,92.41
2019-05-01T05:22:45.375Z,92.51
2019-05-01T05:23:49.375Z,92.51
2019-05-01T05:24:45.875Z,92.61
2019-05-01T05:25:45.875Z,93.18
2019-05-01T05:26:45.875Z,93.46
2019-05-01T05:27:45.874Z,93.18
2019-05-01T05:28:48.373Z,93.27
2019-05-01T05:29:51.833Z,92.84
2019-05-01T05:30:46.374Z,92.84
2019-05-01T05:31:46.375Z,93.51
2019-05-01T05:32:46.374Z,92.56
2019-05-01T05:35:22.113Z,92.56
2019-05-01T05:36:39.120Z,92.84
2019-05-01T05:37:18.118Z,93.13
2019-05-01T05:38:40.577Z,93.23
2019-05-01T05:40:53.439Z,92.84
2019-05-01T05:41:49.950Z,93.41
2019-05-01T05:42:49.948Z,93.13
2019-05-01T05:43:51.883Z,93.32
2019-05-01T05:44:50.448Z,93.32
2019-05-01T05:45:55.951Z,93.32
2019-05-01T05:46:50.449Z,93.41
2019-05-01T05:49:22.188Z,92.65
2019-05-01T05:50:22.190Z,92.36
2019-05-01T05:51:26.189Z,92.27
2019-05-01T05:52:22.689Z,92.18
2019-05-01T05:53:22.689Z,92.46
2019-05-01T05:54:22.689Z,92.51
2019-05-01T05:55:22.691Z,92.60
2019-05-01T05:56:23.186Z,92.32
2019-05-01T05:57:26.189Z,91.94
2019-05-01T05:58:23.202Z,92.27
2019-05-01T05:59:23.188Z,92.03
2019-05-01T06:00:23.689Z,91.65
2019-05-01T06:01:23.692Z,90.99
2019-05-01T06:02:27.688Z,91.17
2019-05-01T06:03:44.704Z,91.75
2019-05-01T06:04:24.189Z,91.56
2019-05-01T06:05:24.188Z,90.89
2019-05-01T06:06:24.187Z,91.75
2019-05-01T06:07:24.189Z,91.37
2019-05-01T06:08:28.693Z,91.75
2019-05-01T06:09:24.691Z,91.46
2019-05-01T06:10:24.688Z,91.84
2019-05-01T06:11:24.706Z,91.08
2019-05-01T06:12:25.188Z,91.17
2019-05-01T06:13:57.147Z,91.17
2019-05-01T06:14:26.984Z,91.17
2019-05-01T06:15:25.189Z,90.99
2019-05-01T06:16:51.496Z,91.17
2019-05-01T06:17:28.565Z,91.65
2019-05-01T06:18:25.692Z,91.27
2019-05-01T06:19:28.687Z,91.08
2019-05-01T06:20:27.638Z,91.46
2019-05-01T06:21:26.187Z,92.03
2019-05-01T06:22:26.194Z,91.84
2019-05-01T06:23:26.187Z,91.56
2019-05-01T06:24:29.692Z,91.84
2019-05-01T06:25:26.695Z,91.65
2019-05-01T06:26:26.687Z,91.65
2019-05-01T06:27:28.156Z,91.56
2019-05-01T06:28:29.585Z,91.46
2019-05-01T06:31:02.364Z,90.94
2019-05-01T06:33:43.840Z,90.08
2019-05-01T06:34:37.357Z,90.46
2019-05-01T06:35:37.669Z,90.84
2019-05-01T06:36:34.356Z,91.13
2019-05-01T06:37:34.356Z,90.84
2019-05-01T06:38:36.178Z,90.94
2019-05-01T06:39:38.356Z,90.17
2019-05-01T06:40:58.167Z,90.56
2019-05-01T06:41:42.153Z,90.94
2019-05-01T06:44:27.338Z,90.27
2019-05-01T06:45:13.128Z,90.56
2019-05-01T06:46:29.093Z,90.65
2019-05-01T06:47:06.849Z,89.79
2019-05-01T06:48:06.845Z,90.27
2019-05-01T06:49:07.160Z,90.17
2019-05-01T06:50:07.540Z,89.98
2019-05-01T06:51:12.911Z,89.98
2019-05-01T06:52:07.344Z,89.89
2019-05-01T06:54:38.828Z,90.03
2019-05-01T06:55:38.836Z,89.94
2019-05-01T06:56:42.845Z,90.03
2019-05-01T06:57:43.866Z,89.84
2019-05-01T06:58:39.337Z,89.94
2019-05-01T06:59:39.336Z,90.41
2019-05-01T07:00:43.090Z,90.41
2019-05-01T07:01:42.835Z,90.12
2019-05-01T07:03:00.839Z,90.03
2019-05-01T07:03:40.817Z,90.03
2019-05-01T07:04:39.844Z,89.46
2019-05-01T07:05:40.337Z,89.46
2019-05-01T07:06:43.835Z,89.65
2019-05-01T07:07:43.106Z,89.17
2019-05-01T07:08:40.352Z,89.07
2019-05-01T07:09:44.099Z,89.46
2019-05-01T07:10:43.923Z,89.26
2019-05-01T07:12:05.335Z,89.46
2019-05-01T07:12:43.269Z,89.69
2019-05-01T07:15:12.571Z,89.22
2019-05-01T07:16:12.572Z,88.98
2019-05-01T07:17:16.578Z,88.55
2019-05-01T07:18:34.074Z,87.79
2019-05-01T07:19:13.080Z,88.17
2019-05-01T07:20:16.702Z,87.88
2019-05-01T07:21:13.085Z,87.79
2019-05-01T07:22:42.360Z,86.74
2019-05-01T07:23:17.381Z,87.54
2019-05-01T07:24:13.574Z,87.16
2019-05-01T07:25:13.576Z,86.78
2019-05-01T07:26:35.091Z,86.21
2019-05-01T07:27:35.078Z,86.78
2019-05-01T07:28:39.073Z,86.40
2019-05-01T07:29:14.079Z,86.30
2019-05-01T07:30:35.576Z,86.98
2019-05-01T07:31:14.574Z,86.49
2019-05-01T07:32:15.136Z,86.02
2019-05-01T07:33:16.746Z,86.11
2019-05-01T07:35:50.309Z,85.06
2019-05-01T07:36:51.717Z,85.39
2019-05-01T07:37:50.312Z,85.06
2019-05-01T07:38:50.806Z,85.30
2019-05-01T07:39:54.306Z,85.58
2019-05-01T07:40:50.813Z,85.39
2019-05-01T07:41:50.806Z,85.58
2019-05-01T07:42:51.309Z,85.01
2019-05-01T07:45:26.624Z,85.39
2019-05-01T07:46:22.678Z,85.87
2019-05-01T07:47:25.932Z,85.39
2019-05-01T07:48:23.178Z,85.77
2019-05-01T07:49:23.178Z,85.68
2019-05-01T07:50:31.832Z,85.77
2019-05-01T07:51:23.182Z,85.49
2019-05-01T07:52:23.678Z,85.21
2019-05-01T07:53:28.008Z,84.29
2019-05-01T07:54:23.678Z,83.81
2019-05-01T07:55:23.683Z,83.81
2019-05-01T07:56:28.084Z,84.20
2019-05-01T07:57:24.178Z,83.81
2019-05-01T07:58:24.180Z,82.76
2019-05-01T07:59:27.503Z,82.14
2019-05-01T08:00:24.685Z,81.85
2019-05-01T08:03:24.803Z,83.04
2019-05-01T08:04:00.362Z,82.94
2019-05-01T08:05:00.362Z,82.65
2019-05-01T08:06:00.367Z,80.84
2019-05-01T08:07:05.335Z,81.70
2019-05-01T08:08:02.877Z,82.18
2019-05-01T08:09:00.861Z,81.70
2019-05-01T08:10:00.864Z,80.55
2019-05-01T08:11:05.301Z,80.55
2019-05-01T08:12:26.369Z,80.59
2019-05-01T08:13:22.360Z,80.59
2019-05-01T08:14:07.369Z,79.73
2019-05-01T08:15:27.614Z,80.21
2019-05-01T08:16:07.120Z,79.83
2019-05-01T08:17:26.889Z,79.64
2019-05-01T08:18:01.868Z,78.49
2019-05-01T08:19:05.819Z,78.05
2019-05-01T08:21:35.727Z,78.14
2019-05-01T08:24:29.449Z,77.48
2019-05-01T08:25:08.456Z,77.33
2019-05-01T08:26:08.941Z,77.33
2019-05-01T08:27:08.981Z,77.13
2019-05-01T08:28:11.467Z,77.13
2019-05-01T08:29:29.954Z,76.27
2019-05-01T08:30:12.697Z,76.98
2019-05-01T08:31:10.910Z,77.17
2019-05-01T08:32:09.452Z,77.17
2019-05-01T08:33:14.681Z,75.83
2019-05-01T08:34:09.458Z,76.12
2019-05-01T08:35:09.456Z,76.02
2019-05-01T08:36:11.588Z,75.64
2019-05-01T08:37:30.960Z,75.54
2019-05-01T08:38:13.956Z,75.48
2019-05-01T08:39:11.425Z,75.68
2019-05-01T08:43:18.146Z,74.24
2019-05-01T08:44:13.129Z,73.95
2019-05-01T08:45:14.562Z,73.47
2019-05-01T08:46:34.633Z,74.43
2019-05-01T08:47:34.627Z,72.99
2019-05-01T08:48:17.626Z,73.57
2019-05-01T08:49:13.653Z,73.13
2019-05-01T08:51:46.323Z,75.71
2019-05-01T08:52:47.414Z,73.90
2019-05-01T08:53:52.746Z,72.55
2019-05-01T08:54:45.889Z,70.25
2019-05-01T08:55:47.102Z,70.19
2019-05-01T08:56:45.889Z,71.15
2019-05-01T08:57:45.890Z,72.07
2019-05-01T08:58:53.824Z,71.98
2019-05-01T08:59:46.390Z,72.84
2019-05-01T09:00:46.389Z,73.03
2019-05-01T09:01:50.540Z,70.06
2019-05-01T09:02:46.897Z,69.68
2019-05-01T09:03:49.759Z,72.07
2019-05-01T09:05:01.678Z,71.21
2019-05-01T09:05:46.889Z,71.78
2019-05-01T09:06:47.390Z,72.17
2019-05-01T09:07:51.292Z,71.34
2019-05-01T09:08:47.388Z,70.19
2019-05-01T09:09:51.389Z,69.23
2019-05-01T09:12:19.133Z,71.25
2019-05-01T09:13:23.825Z,71.19
2019-05-01T09:14:19.142Z,71.34
2019-05-01T09:15:23.140Z,70.57
2019-05-01T09:16:23.481Z,68.88
2019-05-01T09:17:19.641Z,69.93
2019-05-01T09:18:19.640Z,69.36
2019-05-01T09:19:20.151Z,69.26
2019-05-01T09:20:24.141Z,69.46
2019-05-01T09:21:20.141Z,68.30
2019-05-01T09:22:20.153Z,68.02
2019-05-01T09:23:20.645Z,67.35
2019-05-01T09:24:23.233Z,67.83
2019-05-01T09:25:20.641Z,69.26
2019-05-01T09:26:24.146Z,70.42
2019-05-01T09:27:23.739Z,69.84
2019-05-01T09:28:21.150Z,68.82
2019-05-01T09:29:21.141Z,69.01
2019-05-01T09:30:21.815Z,64.79
2019-05-01T09:31:25.141Z,67.09
2019-05-01T09:32:23.642Z,68.15
2019-05-01T09:33:42.647Z,66.64
2019-05-01T09:34:21.641Z,66.16
2019-05-01T09:35:45.429Z,66.26
2019-05-01T09:36:22.110Z,64.95
2019-05-01T09:37:26.157Z,57.93
2019-05-01T09:38:22.141Z,56.01
2019-05-01T09:39:22.142Z,59.19
2019-05-01T09:40:22.642Z,60.63
2019-05-01T09:41:22.638Z,58.25
2019-05-01T09:42:23.817Z,56.43
2019-05-01T09:43:26.143Z,56.62
2019-05-01T09:44:23.141Z,57.48
2019-05-01T09:45:23.144Z,58.45
2019-05-01T09:46:23.148Z,60.17
2019-05-01T09:47:23.151Z,60.66
2019-05-01T09:48:27.642Z,60.17
2019-05-01T09:49:23.646Z,57.29
2019-05-01T09:50:25.830Z,54.89
2019-05-01T09:51:23.636Z,56.16
2019-05-01T09:52:25.098Z,56.33
2019-05-01T09:53:48.642Z,57.13
2019-05-01T09:54:24.148Z,58.47
2019-05-01T09:55:24.948Z,58.22
2019-05-01T09:56:24.142Z,54.14
2019-05-01T09:57:45.650Z,53.96
2019-05-01T09:58:24.643Z,54.94
2019-05-01T09:59:28.643Z,52.12
2019-05-01T10:00:24.643Z,52.03
2019-05-01T10:01:31.652Z,51.09
2019-05-01T10:02:25.140Z,50.99
2019-05-01T10:03:25.147Z,51.84
2019-05-01T10:04:30.301Z,51.26
2019-05-01T10:05:28.910Z,53.96
2019-05-01T10:06:25.709Z,55.01
2019-05-01T10:07:46.642Z,55.11
2019-05-01T10:08:25.649Z,55.20
2019-05-01T10:09:30.153Z,54.82
2019-05-01T10:10:29.290Z,55.11
2019-05-01T10:11:26.143Z,53.96
2019-05-01T10:12:26.141Z,52.44
2019-05-01T10:13:26.141Z,53.50
2019-05-01T10:14:26.643Z,55.33
2019-05-01T10:15:53.153Z,56.58
2019-05-01T10:16:26.643Z,54.68
2019-05-01T10:17:26.644Z,53.50
2019-05-01T10:18:27.143Z,52.06
2019-05-01T10:19:50.169Z,53.23
2019-05-01T10:20:31.152Z,55.45
2019-05-01T10:21:28.852Z,56.03
2019-05-01T10:24:19.893Z,52.27
2019-05-01T10:24:58.920Z,54.00
2019-05-01T10:27:35.772Z,52.27
2019-05-01T10:28:33.111Z,50.63
2019-05-01T10:29:33.104Z,54.00
2019-05-01T10:30:36.341Z,52.66
2019-05-01T10:31:37.104Z,54.30
2019-05-01T10:32:33.616Z,54.78
2019-05-01T10:33:33.858Z,54.03
2019-05-01T10:34:56.661Z,51.43
2019-05-01T10:35:42.346Z,54.71
2019-05-01T10:36:34.107Z,55.00
2019-05-01T10:37:38.039Z,51.43
2019-05-01T10:38:34.106Z,49.99
2019-05-01T10:39:34.606Z,53.45
2019-05-01T10:40:34.605Z,55.57
2019-05-01T10:41:34.605Z,55.00
2019-05-01T10:42:41.003Z,54.35
2019-05-01T10:43:35.109Z,53.48
2019-05-01T10:44:35.106Z,53.29
2019-05-01T10:45:35.106Z,52.42
2019-05-01T10:46:35.105Z,53.22
2019-05-01T10:47:35.604Z,52.55
2019-05-01T10:50:31.890Z,48.21
2019-05-01T10:51:10.897Z,47.17
2019-05-01T10:52:14.357Z,50.45
2019-05-01T10:53:11.396Z,52.47
2019-05-01T10:54:14.897Z,50.84
2019-05-01T10:55:11.396Z,50.26
2019-05-01T10:56:11.396Z,50.93
2019-05-01T10:58:43.156Z,50.13
2019-05-01T11:01:17.612Z,48.01
2019-05-01T11:02:17.617Z,49.55
2019-05-01T11:03:17.617Z,51.70
2019-05-01T11:04:17.617Z,52.47
2019-05-01T11:05:21.117Z,49.68
2019-05-01T11:06:39.125Z,49.48
2019-05-01T11:07:39.120Z,48.88
2019-05-01T11:08:18.117Z,47.82
2019-05-01T11:11:14.869Z,47.31
2019-05-01T11:11:49.877Z,48.57
2019-05-01T11:12:49.876Z,51.65
2019-05-01T11:15:21.632Z,49.05
2019-05-01T11:16:27.080Z,49.53
2019-05-01T11:17:21.644Z,49.27
2019-05-01T11:18:21.641Z,48.79
2019-05-01T11:19:22.137Z,49.19
2019-05-01T11:20:43.139Z,47.92
2019-05-01T11:21:22.142Z,49.19
2019-05-01T11:22:46.637Z,49.68
2019-05-01T11:23:22.637Z,48.97
2019-05-01T11:24:22.639Z,47.45
2019-05-01T11:25:22.638Z,48.52
2019-05-01T11:26:22.641Z,48.81
2019-05-01T11:27:25.646Z,50.16
2019-05-01T11:28:23.138Z,48.90
2019-05-01T11:29:23.139Z,49.02
2019-05-01T11:30:23.141Z,49.60
2019-05-01T11:31:23.639Z,46.64
2019-05-01T11:32:26.638Z,45.28
2019-05-01T11:33:24.043Z,44.78
2019-05-01T11:34:23.639Z,45.45
2019-05-01T11:35:47.140Z,46.34
2019-05-01T11:36:24.145Z,44.24
2019-05-01T11:37:28.139Z,42.91
2019-05-01T11:38:24.139Z,41.58
2019-05-01T11:39:27.073Z,39.67
2019-05-01T11:40:24.640Z,42.40
2019-05-01T11:41:24.639Z,43.38
2019-05-01T11:42:24.639Z,42.34
2019-05-01T11:43:31.147Z,41.39
2019-05-01T11:44:25.137Z,42.63
2019-05-01T11:45:25.140Z,41.20
2019-05-01T11:46:25.139Z,41.00
2019-05-01T11:47:25.647Z,39.86
2019-05-01T11:48:30.095Z,38.91
2019-05-01T11:49:50.165Z,38.32
2019-05-01T11:50:25.640Z,37.84
2019-05-01T11:51:26.142Z,39.01
2019-05-01T11:52:26.140Z,39.12
2019-05-01T11:53:26.142Z,38.07
2019-05-01T11:54:30.190Z,38.95
2019-05-01T11:55:26.641Z,37.98
2019-05-01T11:56:28.109Z,35.86
2019-05-01T11:57:26.650Z,33.83
2019-05-01T11:58:27.595Z,34.82
2019-05-01T11:59:28.075Z,35.97
2019-05-01T12:00:30.164Z,34.90
2019-05-01T12:01:48.141Z,36.85
2019-05-01T12:02:27.142Z,35.96
2019-05-01T12:03:27.138Z,34.42
2019-05-01T12:04:29.640Z,36.47
2019-05-01T12:05:31.641Z,35.05
2019-05-01T12:06:28.609Z,33.49
2019-05-01T12:07:28.598Z,32.31
2019-05-01T12:08:49.161Z,33.58
2019-05-01T12:09:28.141Z,34.56
2019-05-01T12:10:34.076Z,34.06
2019-05-01T12:11:32.145Z,33.29
2019-05-01T12:12:29.609Z,34.45
2019-05-01T12:13:42.752Z,35.02
2019-05-01T12:14:28.645Z,35.55
2019-05-01T12:15:28.642Z,36.87
2019-05-01T12:16:29.142Z,38.68
2019-05-01T12:17:32.150Z,39.72
2019-05-01T12:18:50.141Z,40.28
2019-05-01T12:19:29.141Z,40.92
2019-05-01T12:20:50.647Z,40.92
2019-05-01T12:21:50.642Z,40.92
2019-05-01T12:22:54.645Z,41.70
2019-05-01T12:23:29.642Z,42.96
2019-05-01T12:24:31.139Z,42.22
2019-05-01T12:25:30.143Z,40.91
2019-05-01T12:26:30.149Z,38.32
2019-05-01T12:27:30.191Z,35.92
2019-05-01T12:28:34.643Z,35.37
2019-05-01T12:29:30.643Z,33.93
2019-05-01T12:30:30.644Z,33.95
2019-05-01T12:31:31.580Z,32.11
2019-05-01T12:32:52.143Z,32.23
2019-05-01T12:33:31.151Z,33.88
2019-05-01T12:34:35.654Z,35.05
2019-05-01T12:35:31.155Z,35.50
2019-05-01T12:36:36.482Z,36.24
2019-05-01T12:37:31.650Z,36.34
2019-05-01T12:38:31.647Z,37.02
2019-05-01T12:39:31.651Z,38.70
2019-05-01T12:40:35.651Z,36.88
2019-05-01T12:41:53.144Z,37.39
2019-05-01T12:42:32.143Z,37.97
2019-05-01T12:43:53.150Z,37.14
2019-05-01T12:44:56.078Z,37.68
2019-05-01T12:45:35.644Z,40.17
2019-05-01T12:46:53.644Z,41.51
2019-05-01T12:47:32.648Z,40.21
2019-05-01T12:48:33.151Z,41.16
2019-05-01T12:49:33.186Z,39.80
2019-05-01T12:50:36.648Z,38.45
2019-05-01T12:51:33.144Z,40.96
2019-05-01T12:52:54.644Z,42.59
2019-05-01T12:53:54.646Z,41.42
2019-05-01T12:54:54.645Z,42.78
2019-05-01T12:55:35.101Z,44.70
2019-05-01T12:56:37.649Z,45.57
2019-05-01T12:57:55.145Z,44.87
2019-05-01T12:58:55.982Z,44.96
2019-05-01T12:59:35.607Z,45.81
2019-05-01T13:00:55.645Z,45.59
2019-05-01T13:01:59.154Z,45.89
2019-05-01T13:02:35.579Z,46.75
2019-05-01T13:03:34.645Z,45.57
2019-05-01T13:04:56.144Z,46.15
2019-05-01T13:05:56.146Z,47.41
2019-05-01T13:06:35.146Z,47.41
2019-05-01T13:07:39.146Z,47.60
2019-05-01T13:08:37.121Z,47.58
2019-05-01T13:09:35.656Z,47.00
2019-05-01T13:10:35.646Z,48.74
2019-05-01T13:11:35.646Z,49.15
2019-05-01T13:13:00.649Z,45.45
2019-05-01T13:13:36.146Z,45.28
2019-05-01T13:14:36.146Z,46.63
2019-05-01T13:15:36.146Z,47.58
2019-05-01T13:16:38.644Z,49.29
2019-05-01T13:17:36.646Z,50.07
2019-05-01T13:18:40.147Z,47.63
2019-05-01T13:19:36.649Z,46.08
2019-05-01T13:20:37.152Z,45.67
2019-05-01T13:21:37.146Z,45.18
2019-05-01T13:22:37.146Z,45.36
2019-05-01T13:23:41.648Z,45.94
2019-05-01T13:24:37.650Z,46.59
2019-05-01T13:25:37.653Z,46.78
2019-05-01T13:26:37.650Z,47.85
2019-05-01T13:27:37.647Z,47.65
2019-05-01T13:28:38.147Z,48.90
2019-05-01T13:29:41.150Z,47.09
2019-05-01T13:30:38.170Z,47.19
2019-05-01T13:31:38.150Z,46.61
2019-05-01T13:32:38.673Z,47.09
2019-05-01T13:33:38.650Z,46.64
2019-05-01T13:34:42.651Z,48.95
2019-05-01T13:35:38.648Z,45.96
2019-05-01T13:36:41.148Z,45.57
2019-05-01T13:39:31.533Z,48.08
2019-05-01T13:40:14.035Z,47.22
2019-05-01T13:41:12.472Z,49.15
2019-05-01T13:42:11.037Z,49.24
2019-05-01T13:43:32.051Z,48.95
2019-05-01T13:44:11.037Z,49.82
2019-05-01T13:45:15.049Z,49.53
2019-05-01T13:46:11.538Z,48.25
2019-05-01T13:47:11.537Z,49.32
2019-05-01T13:48:32.538Z,50.64
2019-05-01T13:49:11.539Z,52.09
2019-05-01T13:51:46.145Z,50.62
2019-05-01T13:53:07.153Z,50.71
2019-05-01T13:53:46.153Z,50.52
2019-05-01T13:54:46.652Z,52.25
2019-05-01T13:55:50.157Z,51.68
2019-05-01T13:56:46.652Z,51.58